Terminal Aerodrome Forecast
Issued by NWS

Home | Current Version | Previous Version | Text Only | Print | Product List | Glossary On
Versions: 1 2 3 4 5 6 7 8 9 10 11 12
000
FTUS46 KLOX 171739
TAFPRB
TAF
KPRB 171739Z 1718/1818 VRB03KT P6SM SCT200
     FM172200 23006KT P6SM SCT060 BKN150
     FM180000 20010KT P6SM BKN120
     FM180500 VRB03KT P6SM BKN100
     FM181500 VRB03KT P6SM BKN200=

USA.gov is the U.S. government's official web portal to all federal, state and local government web resources and services.